Time;durP1;ratioP1;P1;durP2;ratioP2;P2;SDS_P1;SDS_P2;PMS_P1;PMS_P2;Temp;Humidity;BMP_temperature;BMP_pressure;BME280_temperature;BME280_humidity;BME280_pressure;Samples;Min_cycle;Max_cycle;Signal;HPM_P1;HPM_P2
2023/12/30 00:00:05;;;;;;;1.02;1.02;;;;;;;0.12;100.00;97386.66;4800452;29;20876;-78
2023/12/30 00:02:47;;;;;;;1.10;1.10;;;;;;;0.02;100.00;97381.03;4766705;30;20060;-79
2023/12/30 00:05:16;;;;;;;0.85;0.85;;;;;;;0.07;100.00;97372.44;4766786;29;20505;-78
2023/12/30 00:07:44;;;;;;;0.93;0.93;;;;;;;0.08;100.00;97368.78;4784512;29;20059;-78
2023/12/30 00:10:12;;;;;;;1.00;1.00;;;;;;;-0.01;100.00;97357.63;4798325;29;20142;-79
2023/12/30 00:12:40;;;;;;;1.00;1.00;;;;;;;-0.01;100.00;97365.56;4788027;29;20059;-78
2023/12/30 00:15:09;;;;;;;0.93;0.93;;;;;;;-0.01;100.00;97355.75;4786411;30;20047;-78
2023/12/30 00:17:37;;;;;;;1.10;1.10;;;;;;;0.01;100.00;97358.22;4782953;29;20426;-78
2023/12/30 00:20:05;;;;;;;1.10;1.10;;;;;;;-0.01;100.00;97357.63;4788193;29;20059;-78
2023/12/30 00:22:33;;;;;;;1.10;1.10;;;;;;;-0.04;100.00;97339.47;4786853;30;20087;-78
2023/12/30 00:25:00;;;;;;;1.10;1.10;;;;;;;-0.05;100.00;97348.44;4787028;30;20052;-77
2023/12/30 00:27:29;;;;;;;1.10;1.10;;;;;;;-0.06;100.00;97336.22;4788282;30;20086;-79
2023/12/30 00:29:56;;;;;;;1.10;1.10;;;;;;;-0.13;100.00;97336.28;4788527;30;20116;-78
2023/12/30 00:32:24;;;;;;;1.00;1.00;;;;;;;-0.10;100.00;97338.53;4787966;29;20063;-78
2023/12/30 00:34:51;;;;;;;1.05;1.05;;;;;;;-0.13;100.00;97335.47;4786968;29;20055;-78
2023/12/30 00:37:21;;;;;;;1.05;1.05;;;;;;;-0.13;100.00;97330.97;4787501;29;20063;-78
2023/12/30 00:39:50;;;;;;;1.00;1.00;;;;;;;-0.13;100.00;97330.97;4788120;30;20055;-78
2023/12/30 00:42:18;;;;;;;0.98;0.98;;;;;;;-0.15;100.00;97335.72;4802309;29;20051;-80
2023/12/30 00:44:45;;;;;;;1.00;1.00;;;;;;;-0.18;100.00;97322.06;4787155;30;20146;-78
2023/12/30 00:47:14;;;;;;;1.00;1.00;;;;;;;-0.20;100.00;97332.91;4787357;30;20055;-76
2023/12/30 00:49:41;;;;;;;1.00;1.00;;;;;;;-0.20;100.00;97330.25;4787915;29;20534;-77
2023/12/30 00:52:08;;;;;;;1.08;1.08;;;;;;;-0.27;100.00;97309.06;4783287;29;20067;-78
2023/12/30 00:54:36;;;;;;;0.90;0.90;;;;;;;-0.26;100.00;97318.63;4785289;30;20059;-78
2023/12/30 00:57:14;;;;;;;1.02;1.02;;;;;;;-0.26;100.00;97304.56;4787194;29;20085;-79
2023/12/30 00:59:42;;;;;;;1.00;1.00;;;;;;;-0.25;100.00;97322.13;4784390;29;20047;-79
2023/12/30 01:02:10;;;;;;;0.98;0.98;;;;;;;-0.33;100.00;97298.50;4775721;30;20075;-79
2023/12/30 01:04:37;;;;;;;0.85;0.85;;;;;;;-0.27;100.00;97308.28;4800425;29;20104;-79
2023/12/30 01:07:05;;;;;;;1.10;1.10;;;;;;;-0.28;100.00;97307.47;4788503;29;20074;-79
2023/12/30 01:09:32;;;;;;;0.98;0.98;;;;;;;-0.28;100.00;97303.97;4786544;30;20078;-80
2023/12/30 01:12:00;;;;;;;1.10;1.10;;;;;;;-0.29;100.00;97305.00;4801989;29;20108;-79
2023/12/30 01:14:27;;;;;;;1.00;1.00;;;;;;;-0.30;100.00;97293.59;4788056;29;20082;-80
2023/12/30 01:16:55;;;;;;;1.10;1.10;;;;;;;-0.32;100.00;97306.25;4772082;30;20504;-79
2023/12/30 01:19:24;;;;;;;0.93;0.93;;;;;;;-0.36;100.00;97301.59;4786488;30;20452;-79
2023/12/30 01:21:51;;;;;;;1.00;1.00;;;;;;;-0.34;100.00;97292.41;4787676;29;20066;-79
2023/12/30 01:24:19;;;;;;;1.00;1.00;;;;;;;-0.35;100.00;97290.00;4786900;29;20075;-80
2023/12/30 01:26:46;;;;;;;1.00;1.00;;;;;;;-0.35;100.00;97285.50;4786751;30;20156;-80
2023/12/30 01:29:14;;;;;;;1.00;1.00;;;;;;;-0.34;100.00;97287.09;4787448;30;20071;-80
2023/12/30 01:31:41;;;;;;;1.05;1.05;;;;;;;-0.32;100.00;97287.69;4786493;29;20052;-78
2023/12/30 01:34:09;;;;;;;1.10;1.10;;;;;;;-0.30;100.00;97292.81;4788062;29;20074;-79
2023/12/30 01:36:36;;;;;;;1.08;1.08;;;;;;;-0.28;100.00;97280.13;4787711;29;20065;-78
2023/12/30 01:39:03;;;;;;;0.98;0.98;;;;;;;-0.29;100.00;97279.31;4786515;30;20556;-78
2023/12/30 01:41:32;;;;;;;1.08;1.08;;;;;;;-0.31;100.00;97283.22;4787399;29;20051;-78
2023/12/30 01:43:59;;;;;;;1.00;1.00;;;;;;;-0.17;100.00;97271.47;4786000;29;20423;-79
2023/12/30 01:46:27;;;;;;;1.10;1.10;;;;;;;-0.16;100.00;97259.81;4787444;29;20499;-79
2023/12/30 01:48:55;;;;;;;1.00;1.00;;;;;;;-0.13;100.00;97263.88;4786200;30;20062;-79
2023/12/30 01:51:24;;;;;;;0.90;0.90;;;;;;;-0.09;100.00;97265.06;4786081;30;20055;-79
2023/12/30 01:53:54;;;;;;;1.10;1.10;;;;;;;-0.04;100.00;97270.53;4785820;29;20507;-79
2023/12/30 01:56:22;;;;;;;1.05;1.05;;;;;;;-0.03;100.00;97256.22;4785884;30;20063;-78
2023/12/30 01:58:51;;;;;;;1.00;1.00;;;;;;;0.03;100.00;97259.88;4785950;29;20149;-79
2023/12/30 02:01:21;;;;;;;1.00;1.00;;;;;;;0.04;100.00;97243.72;4802719;29;20430;-78
2023/12/30 02:03:49;;;;;;;0.93;0.93;;;;;;;0.10;100.00;97257.94;4805037;29;20061;-79
2023/12/30 02:06:17;;;;;;;1.10;1.10;;;;;;;0.13;100.00;97257.50;4818806;29;20426;-78
2023/12/30 02:08:47;;;;;;;1.10;1.10;;;;;;;0.17;100.00;97248.88;4804129;29;20053;-79
2023/12/30 02:11:15;;;;;;;1.02;1.02;;;;;;;0.20;100.00;97256.41;4804984;29;20137;-80
2023/12/30 02:13:43;;;;;;;1.00;1.00;;;;;;;0.22;100.00;97256.16;4789305;29;20051;-79
2023/12/30 02:16:11;;;;;;;1.00;1.00;;;;;;;0.27;100.00;97236.94;4785558;30;20059;-78
2023/12/30 02:18:39;;;;;;;1.02;1.02;;;;;;;0.27;100.00;97256.31;4770737;30;20051;-78
2023/12/30 02:21:07;;;;;;;1.10;1.10;;;;;;;0.29;100.00;97238.34;4787044;30;20054;-79
2023/12/30 02:23:34;;;;;;;0.95;0.95;;;;;;;0.31;100.00;97241.59;4785548;30;20055;-79
2023/12/30 02:26:02;;;;;;;1.08;1.08;;;;;;;0.33;100.00;97244.84;4787483;29;20113;-78
2023/12/30 02:28:29;;;;;;;1.00;1.00;;;;;;;0.38;100.00;97249.44;4787314;29;20089;-78
2023/12/30 02:30:57;;;;;;;1.00;1.00;;;;;;;0.38;100.00;97247.63;4787660;29;20138;-80
2023/12/30 02:33:24;;;;;;;0.90;0.90;;;;;;;0.40;100.00;97239.44;4788544;29;20058;-80
2023/12/30 02:35:52;;;;;;;1.00;1.00;;;;;;;0.41;100.00;97236.56;4800722;29;20150;-79
2023/12/30 02:38:19;;;;;;;1.00;1.00;;;;;;;0.45;100.00;97242.22;4786715;29;20059;-79
2023/12/30 02:40:47;;;;;;;0.85;0.85;;;;;;;0.49;100.00;97251.38;4786503;29;20457;-78
2023/12/30 02:43:14;;;;;;;1.10;1.10;;;;;;;0.50;100.00;97237.06;4786707;29;20058;-78
2023/12/30 02:45:41;;;;;;;1.00;1.00;;;;;;;0.51;100.00;97245.88;4785060;30;20083;-79
2023/12/30 02:48:09;;;;;;;0.93;0.93;;;;;;;0.50;100.00;97239.72;4773857;30;20055;-79
2023/12/30 02:50:36;;;;;;;1.02;1.02;;;;;;;0.49;100.00;97246.06;4773138;30;20051;-79
2023/12/30 02:53:03;;;;;;;1.00;1.00;;;;;;;0.56;100.00;97248.66;4768505;30;20569;-80
2023/12/30 02:55:31;;;;;;;1.00;1.00;;;;;;;0.54;100.00;97253.38;4781294;29;20055;-79
2023/12/30 02:57:58;;;;;;;1.20;1.20;;;;;;;0.58;100.00;97241.25;4802979;29;20058;-79
2023/12/30 03:00:26;;;;;;;0.90;0.90;;;;;;;0.60;100.00;97252.47;4817758;29;20062;-79
2023/12/30 03:02:56;;;;;;;1.10;1.10;;;;;;;0.59;100.00;97259.63;4804124;29;20063;-79
2023/12/30 03:05:23;;;;;;;1.00;1.00;;;;;;;0.57;100.00;97244.97;4802861;29;20450;-79
2023/12/30 03:07:51;;;;;;;1.00;1.00;;;;;;;0.55;100.00;97255.78;4802658;29;20430;-80
2023/12/30 03:10:18;;;;;;;0.90;0.90;;;;;;;0.57;100.00;97242.31;4786920;29;20055;-79
2023/12/30 03:12:45;;;;;;;0.93;0.93;;;;;;;0.56;100.00;97256.63;4784796;30;20047;-80
2023/12/30 03:15:13;;;;;;;1.10;1.10;;;;;;;0.57;100.00;97252.91;4784330;30;20154;-79
2023/12/30 03:17:41;;;;;;;1.00;1.00;;;;;;;0.57;100.00;97255.56;4799327;29;20059;-79
2023/12/30 03:20:09;;;;;;;1.08;1.08;;;;;;;0.59;100.00;97242.91;4784582;30;20061;-79
2023/12/30 03:22:40;;;;;;;1.10;1.10;;;;;;;0.59;100.00;97250.84;4785749;29;20057;-79
2023/12/30 03:25:08;;;;;;;1.00;1.00;;;;;;;0.58;100.00;97249.22;4785667;29;20145;-79
2023/12/30 03:27:36;;;;;;;1.00;1.00;;;;;;;0.60;100.00;97255.13;4785660;30;20063;-79
2023/12/30 03:30:05;;;;;;;1.00;1.00;;;;;;;0.61;100.00;97254.09;4785654;30;20621;-80
2023/12/30 03:32:33;;;;;;;1.08;1.08;;;;;;;0.64;100.00;97248.34;4784233;30;20090;-79
2023/12/30 03:35:00;;;;;;;1.00;1.00;;;;;;;0.67;100.00;97258.50;4785564;30;20051;-79
2023/12/30 03:37:29;;;;;;;1.00;1.00;;;;;;;0.70;100.00;97254.59;4785376;29;20067;-80
2023/12/30 03:40:04;;;;;;;1.10;1.10;;;;;;;0.70;100.00;97255.41;4798650;29;20063;-80
2023/12/30 03:42:34;;;;;;;1.00;1.00;;;;;;;0.72;100.00;97253.34;4784951;29;20668;-80
2023/12/30 03:45:01;;;;;;;1.00;1.00;;;;;;;0.75;100.00;97260.03;4785687;30;20047;-79
2023/12/30 03:47:31;;;;;;;1.08;1.08;;;;;;;0.78;100.00;97255.09;4785162;29;20059;-80
2023/12/30 03:49:59;;;;;;;0.95;0.95;;;;;;;0.79;100.00;97254.06;4783911;30;20063;-79
2023/12/30 03:52:29;;;;;;;1.02;1.02;;;;;;;0.80;100.00;97278.78;4792335;29;20149;-79
2023/12/30 03:54:57;;;;;;;1.00;1.00;;;;;;;0.81;100.00;97257.31;4803922;29;20158;-78
2023/12/30 03:57:25;;;;;;;1.00;1.00;;;;;;;0.83;100.00;97257.06;4804517;29;20058;-79
2023/12/30 03:59:52;;;;;;;0.95;0.95;;;;;;;0.86;100.00;97261.94;4803723;29;20070;-79
2023/12/30 04:02:21;;;;;;;1.10;1.10;;;;;;;0.84;100.00;97262.16;4804228;29;20055;-78
2023/12/30 04:04:48;;;;;;;1.00;1.00;;;;;;;0.85;100.00;97265.63;4804044;29;20055;-79
2023/12/30 04:07:18;;;;;;;1.00;1.00;;;;;;;0.85;100.00;97269.09;4803220;29;20058;-79
2023/12/30 04:09:45;;;;;;;1.00;1.00;;;;;;;0.85;100.00;97277.06;4790475;29;20057;-79
2023/12/30 04:12:15;;;;;;;0.90;0.90;;;;;;;0.84;100.00;97259.50;4783927;30;20085;-79
2023/12/30 04:14:43;;;;;;;1.00;1.00;;;;;;;0.87;100.00;97266.22;4784254;30;20434;-79
2023/12/30 04:17:11;;;;;;;1.00;1.00;;;;;;;0.85;100.00;97285.03;4784036;30;20062;-80
2023/12/30 04:19:41;;;;;;;1.05;1.05;;;;;;;0.88;100.00;97267.84;4784114;30;20063;-79
2023/12/30 04:22:15;;;;;;;1.10;1.10;;;;;;;0.87;100.00;97279.50;4784229;30;20404;-77
2023/12/30 04:24:43;;;;;;;0.90;0.90;;;;;;;0.90;100.00;97280.91;4786857;29;20515;-77
2023/12/30 04:27:10;;;;;;;1.00;1.00;;;;;;;0.90;100.00;97280.91;4788719;30;20062;-79
2023/12/30 04:29:37;;;;;;;1.10;1.10;;;;;;;0.92;100.00;97281.50;4787669;30;20062;-79
2023/12/30 04:32:05;;;;;;;0.90;0.90;;;;;;;0.92;100.00;97294.78;4787094;29;20062;-79
2023/12/30 04:34:32;;;;;;;0.90;0.90;;;;;;;0.92;100.00;97284.16;4769743;30;20055;-79
2023/12/30 04:37:00;;;;;;;1.00;1.00;;;;;;;0.92;100.00;97284.16;4785090;30;20525;-79
2023/12/30 04:39:27;;;;;;;0.98;0.98;;;;;;;0.94;100.00;97282.06;4785719;29;20055;-78
2023/12/30 04:41:59;;;;;;;1.10;1.10;;;;;;;0.94;100.00;97312.09;4783771;30;20578;-79
2023/12/30 04:44:26;;;;;;;1.00;1.00;;;;;;;0.93;100.00;97307.81;4783230;30;20074;-80
2023/12/30 04:46:56;;;;;;;1.00;1.00;;;;;;;0.95;100.00;97299.63;4784897;29;20059;-79
2023/12/30 04:49:26;;;;;;;1.00;1.00;;;;;;;0.95;100.00;97299.63;4797435;29;20047;-79
2023/12/30 04:51:54;;;;;;;0.93;0.93;;;;;;;0.96;100.00;97296.75;4802800;29;20054;-79
2023/12/30 04:54:22;;;;;;;1.10;1.10;;;;;;;0.92;100.00;97319.47;4816420;29;20067;-82
2023/12/30 04:56:51;;;;;;;0.93;0.93;;;;;;;0.98;100.00;97309.81;4803207;29;20123;-77
2023/12/30 04:59:22;;;;;;;1.00;1.00;;;;;;;0.96;100.00;97311.88;4804748;29;20055;-79
2023/12/30 05:01:49;;;;;;;1.00;1.00;;;;;;;0.95;100.00;97320.88;4805111;29;20062;-80
2023/12/30 05:04:17;;;;;;;1.00;1.00;;;;;;;0.92;100.00;97316.03;4819605;29;20431;-79
2023/12/30 05:06:44;;;;;;;0.90;0.90;;;;;;;0.97;100.00;97330.25;4806150;29;20431;-78
2023/12/30 05:09:14;;;;;;;1.00;1.00;;;;;;;0.99;100.00;97332.69;4796973;29;20051;-79
2023/12/30 05:11:44;;;;;;;1.00;1.00;;;;;;;0.97;100.00;97334.75;4787817;29;20075;-81
2023/12/30 05:14:13;;;;;;;0.98;0.98;;;;;;;0.96;100.00;97325.16;4787753;29;20048;-80
2023/12/30 05:16:44;;;;;;;0.98;0.98;;;;;;;0.97;100.00;97332.09;4786043;29;20111;-79
2023/12/30 05:19:12;;;;;;;1.00;1.00;;;;;;;0.98;100.00;97336.38;4788566;29;20055;-80
2023/12/30 05:21:40;;;;;;;1.00;1.00;;;;;;;1.00;100.00;97347.59;4779705;30;20074;-80
2023/12/30 05:24:10;;;;;;;1.00;1.00;;;;;;;1.03;100.00;97349.78;4784219;29;20051;-80
2023/12/30 05:26:38;;;;;;;1.02;1.02;;;;;;;0.91;100.00;97336.44;4787221;29;20057;-82
2023/12/30 05:29:05;;;;;;;0.90;0.90;;;;;;;0.95;100.00;97353.56;4801622;29;20062;-79
2023/12/30 05:31:33;;;;;;;1.00;1.00;;;;;;;1.04;100.00;97359.41;4784804;29;20071;-78
2023/12/30 05:34:00;;;;;;;1.00;1.00;;;;;;;1.02;100.00;97358.81;4780680;29;20104;-79
2023/12/30 05:36:28;;;;;;;1.00;1.00;;;;;;;1.04;100.00;97359.41;4783443;30;20108;-78
2023/12/30 05:38:55;;;;;;;1.00;1.00;;;;;;;1.06;100.00;97367.94;4786099;30;20059;-79
2023/12/30 05:41:22;;;;;;;1.00;1.00;;;;;;;1.10;100.00;97370.97;4785185;29;20142;-78
2023/12/30 05:43:51;;;;;;;1.00;1.00;;;;;;;1.07;100.00;97364.25;4781005;30;20054;-80
2023/12/30 05:46:18;;;;;;;1.00;1.00;;;;;;;1.07;100.00;97381.00;4802831;29;20544;-78
2023/12/30 05:48:46;;;;;;;1.00;1.00;;;;;;;1.09;100.00;97375.47;4786624;29;20392;-78
2023/12/30 05:51:13;;;;;;;1.00;1.00;;;;;;;1.06;100.00;97383.88;4786711;29;20146;-77
2023/12/30 05:53:41;;;;;;;1.00;1.00;;;;;;;1.10;100.00;97400.19;4787081;29;20495;-79
2023/12/30 05:56:08;;;;;;;0.98;0.98;;;;;;;1.07;100.00;97391.63;4783228;30;20101;-79
2023/12/30 05:58:37;;;;;;;1.00;1.00;;;;;;;1.08;100.00;97403.88;4784413;30;20439;-78
2023/12/30 06:01:05;;;;;;;0.80;0.80;;;;;;;1.09;100.00;97402.03;4786618;29;20066;-78
2023/12/30 06:03:35;;;;;;;0.90;0.90;;;;;;;1.09;100.00;97415.34;4784245;29;20708;-78
2023/12/30 06:06:03;;;;;;;1.00;1.00;;;;;;;1.08;100.00;97419.81;4786801;29;20055;-79
2023/12/30 06:08:32;;;;;;;1.00;1.00;;;;;;;1.08;100.00;97421.66;4785482;29;20061;-79
2023/12/30 06:11:01;;;;;;;1.00;1.00;;;;;;;1.08;100.00;97424.31;4786658;29;20047;-79
2023/12/30 06:13:28;;;;;;;1.00;1.00;;;;;;;1.09;100.00;97428.63;4784279;30;20496;-78
2023/12/30 06:15:56;;;;;;;0.90;0.90;;;;;;;1.08;100.00;97438.41;4785388;29;20581;-78
2023/12/30 06:18:30;;;;;;;1.00;1.00;;;;;;;1.07;100.00;97450.09;4799542;29;20554;-78
2023/12/30 06:21:03;;;;;;;0.90;0.90;;;;;;;1.07;100.00;97436.00;4786538;29;20141;-78
2023/12/30 06:23:32;;;;;;;0.98;0.98;;;;;;;1.05;100.00;97449.50;4799460;29;20075;-77
2023/12/30 06:26:03;;;;;;;0.90;0.90;;;;;;;1.00;100.00;97452.00;4785729;30;20396;-78
2023/12/30 06:28:30;;;;;;;1.00;1.00;;;;;;;1.00;100.00;97467.13;4785973;29;20143;-77
2023/12/30 06:30:58;;;;;;;1.10;1.10;;;;;;;1.00;100.00;97464.47;4785091;30;20058;-77
2023/12/30 06:33:25;;;;;;;1.10;1.10;;;;;;;0.98;100.00;97480.63;4786123;30;20473;-76
2023/12/30 06:35:53;;;;;;;1.00;1.00;;;;;;;0.96;100.00;97477.41;4783080;30;20151;-77
2023/12/30 06:38:21;;;;;;;0.90;0.90;;;;;;;0.91;100.00;97479.88;4799263;29;20054;-78
2023/12/30 06:40:48;;;;;;;1.00;1.00;;;;;;;0.83;100.00;97459.72;4787232;29;20109;-77
2023/12/30 06:43:16;;;;;;;0.93;0.93;;;;;;;0.75;100.00;97494.53;4786122;29;20128;-77
2023/12/30 06:45:46;;;;;;;1.00;1.00;;;;;;;0.76;100.00;97504.16;4785848;29;20458;-77
2023/12/30 06:48:13;;;;;;;1.10;1.10;;;;;;;0.75;100.00;97509.66;4781438;30;20518;-77
2023/12/30 06:50:40;;;;;;;0.90;0.90;;;;;;;0.71;100.00;97514.59;4783847;30;20047;-77
2023/12/30 06:53:08;;;;;;;0.98;0.98;;;;;;;0.72;100.00;97513.56;4784710;29;20104;-77
2023/12/30 06:55:35;;;;;;;1.00;1.00;;;;;;;0.71;100.00;97519.91;4783794;30;20055;-77
2023/12/30 06:58:13;;;;;;;1.00;1.00;;;;;;;0.71;100.00;97527.88;4785884;29;20070;-78
2023/12/30 07:00:41;;;;;;;0.90;0.90;;;;;;;0.71;100.00;97537.66;4785593;29;20054;-78
2023/12/30 07:03:08;;;;;;;1.10;1.10;;;;;;;0.67;100.00;97520.56;4785857;29;20534;-77
2023/12/30 07:05:37;;;;;;;1.10;1.10;;;;;;;0.67;100.00;97539.97;4774404;30;20058;-77
2023/12/30 07:08:05;;;;;;;1.10;1.10;;;;;;;0.68;100.00;97549.53;4779187;29;20056;-78
2023/12/30 07:10:32;;;;;;;0.90;0.90;;;;;;;0.66;100.00;97551.63;4784796;30;20085;-78
2023/12/30 07:13:00;;;;;;;1.00;1.00;;;;;;;0.64;100.00;97567.75;4782538;29;20058;-78
2023/12/30 07:15:28;;;;;;;1.00;1.00;;;;;;;0.63;100.00;97567.97;4782299;29;20055;-79
2023/12/30 07:17:56;;;;;;;1.00;1.00;;;;;;;0.60;100.00;97579.84;4785763;29;20542;-78
2023/12/30 07:20:25;;;;;;;0.95;0.95;;;;;;;0.62;100.00;97588.41;4785208;29;20509;-78
2023/12/30 07:22:55;;;;;;;1.00;1.00;;;;;;;0.70;100.00;97584.66;4786026;30;20138;-78
2023/12/30 07:25:23;;;;;;;1.00;1.00;;;;;;;0.74;100.00;97601.00;4799235;29;20051;-78
2023/12/30 07:27:51;;;;;;;1.00;1.00;;;;;;;0.80;100.00;97603.59;4785854;30;20161;-78
2023/12/30 07:30:19;;;;;;;1.10;1.10;;;;;;;0.81;100.00;97607.88;4785453;29;20047;-77
2023/12/30 07:32:46;;;;;;;1.00;1.00;;;;;;;0.84;100.00;97610.09;4784434;29;20058;-78
2023/12/30 07:35:14;;;;;;;1.10;1.10;;;;;;;0.88;100.00;97615.78;4785316;29;20055;-77
2023/12/30 07:37:42;;;;;;;1.10;1.10;;;;;;;0.92;100.00;97626.81;4794039;29;20061;-77
2023/12/30 07:40:11;;;;;;;1.10;1.10;;;;;;;0.91;100.00;97628.63;4803783;29;20424;-78
2023/12/30 07:42:39;;;;;;;1.10;1.10;;;;;;;0.90;100.00;97636.84;4803541;29;20058;-78
2023/12/30 07:45:07;;;;;;;1.00;1.00;;;;;;;0.88;100.00;97633.56;4793789;29;20096;-78
2023/12/30 07:47:34;;;;;;;0.90;0.90;;;;;;;0.84;100.00;97639.31;4784859;29;20575;-78
2023/12/30 07:50:02;;;;;;;1.10;1.10;;;;;;;0.85;100.00;97642.78;4785638;29;20051;-77
2023/12/30 07:52:30;;;;;;;1.00;1.00;;;;;;;0.81;100.00;97649.53;4783728;30;20562;-79
2023/12/30 07:54:58;;;;;;;0.80;0.80;;;;;;;0.78;100.00;97634.84;4785187;29;20063;-79
2023/12/30 07:57:25;;;;;;;1.00;1.00;;;;;;;0.84;100.00;97663.22;4784888;30;20652;-79
2023/12/30 07:59:55;;;;;;;1.00;1.00;;;;;;;0.86;100.00;97653.22;4785378;29;20128;-79
2023/12/30 08:02:23;;;;;;;1.00;1.00;;;;;;;0.90;100.00;97658.09;4785433;29;20070;-78
2023/12/30 08:04:50;;;;;;;1.00;1.00;;;;;;;0.90;100.00;97661.53;4785455;29;20062;-78
2023/12/30 08:07:18;;;;;;;1.00;1.00;;;;;;;0.91;100.00;97663.16;4785210;29;20111;-77
2023/12/30 08:09:46;;;;;;;1.02;1.02;;;;;;;0.93;100.00;97669.06;4785685;29;20063;-78
2023/12/30 08:12:14;;;;;;;1.00;1.00;;;;;;;0.97;100.00;97682.75;4784128;30;20059;-77
2023/12/30 08:14:41;;;;;;;1.10;1.10;;;;;;;0.93;100.00;97678.91;4784957;29;20506;-78
2023/12/30 08:17:09;;;;;;;1.00;1.00;;;;;;;0.94;100.00;97704.41;4785243;29;20058;-77
2023/12/30 08:19:36;;;;;;;1.00;1.00;;;;;;;0.93;100.00;97700.16;4785155;29;20104;-80
2023/12/30 08:22:04;;;;;;;1.10;1.10;;;;;;;0.90;100.00;97698.72;4783853;30;20047;-79
2023/12/30 08:24:32;;;;;;;1.00;1.00;;;;;;;0.92;100.00;97707.31;4784860;29;20059;-80
2023/12/30 08:26:59;;;;;;;1.10;1.10;;;;;;;0.92;100.00;97711.81;4783553;30;20174;-81
2023/12/30 08:29:27;;;;;;;1.00;1.00;;;;;;;0.92;100.00;97719.78;4785002;29;20436;-79
2023/12/30 08:31:54;;;;;;;1.10;1.10;;;;;;;0.90;100.00;97719.19;4799527;29;20427;-78
2023/12/30 08:34:21;;;;;;;1.00;1.00;;;;;;;0.97;100.00;97727.94;4788293;29;20051;-79
2023/12/30 08:36:49;;;;;;;1.00;1.00;;;;;;;0.98;100.00;97730.34;4790555;29;20527;-79
2023/12/30 08:39:16;;;;;;;0.95;0.95;;;;;;;1.00;100.00;97738.13;4806437;29;20090;-78
2023/12/30 08:41:43;;;;;;;0.93;0.93;;;;;;;1.00;100.00;97749.56;4806726;29;20108;-79
2023/12/30 08:44:11;;;;;;;1.00;1.00;;;;;;;1.04;100.00;97745.44;4817565;29;20075;-80
2023/12/30 08:46:38;;;;;;;1.00;1.00;;;;;;;1.04;100.00;97739.34;4788437;29;20047;-79
2023/12/30 08:49:06;;;;;;;1.00;1.00;;;;;;;1.04;100.00;97739.34;4788387;29;20095;-78
2023/12/30 08:51:37;;;;;;;1.00;1.00;;;;;;;0.97;100.00;97741.22;4788295;30;20155;-78
2023/12/30 08:54:04;;;;;;;1.10;1.10;;;;;;;0.95;100.00;97736.09;4788157;29;20077;-78
2023/12/30 08:56:33;;;;;;;1.05;1.05;;;;;;;1.02;100.00;97741.38;4788026;29;20055;-78
2023/12/30 08:59:03;;;;;;;1.10;1.10;;;;;;;1.06;100.00;97758.50;4786970;30;20059;-77
2023/12/30 09:01:31;;;;;;;1.10;1.10;;;;;;;1.07;100.00;97762.81;4787923;29;20056;-79
2023/12/30 09:03:59;;;;;;;1.00;1.00;;;;;;;1.06;100.00;97769.13;4787839;29;20055;-78
2023/12/30 09:06:31;;;;;;;1.10;1.10;;;;;;;1.08;100.00;97783.03;4786656;30;20082;-78
2023/12/30 09:08:58;;;;;;;1.00;1.00;;;;;;;1.04;100.00;97785.31;4788015;29;20075;-78
2023/12/30 09:11:25;;;;;;;1.00;1.00;;;;;;;1.05;100.00;97786.13;4787574;30;20064;-79
2023/12/30 09:13:53;;;;;;;1.02;1.02;;;;;;;1.02;100.00;97778.56;4787840;29;20047;-78
2023/12/30 09:16:20;;;;;;;1.00;1.00;;;;;;;1.07;100.00;97797.34;4787668;29;20055;-77
2023/12/30 09:18:48;;;;;;;0.95;0.95;;;;;;;1.03;100.00;97796.13;4787880;30;20055;-78
2023/12/30 09:21:17;;;;;;;1.00;1.00;;;;;;;1.04;100.00;97800.44;4787534;29;20460;-78
2023/12/30 09:23:45;;;;;;;1.00;1.00;;;;;;;1.05;100.00;97808.19;4787981;29;20543;-79
2023/12/30 09:26:14;;;;;;;1.10;1.10;;;;;;;1.06;100.00;97819.63;4781967;30;20051;-80
2023/12/30 09:28:41;;;;;;;0.90;0.90;;;;;;;1.03;100.00;97818.19;4784597;29;20468;-78
2023/12/30 09:31:08;;;;;;;1.00;1.00;;;;;;;1.10;100.00;97812.88;4438865;29;10000403;-77
2023/12/30 09:33:36;;;;;;;0.80;0.80;;;;;;;1.08;100.00;97810.41;4766061;30;20059;-79
2023/12/30 09:36:05;;;;;;;1.00;1.00;;;;;;;1.10;100.00;97820.03;4765969;30;20097;-77
2023/12/30 09:38:33;;;;;;;1.02;1.02;;;;;;;1.10;100.00;97823.50;4781112;30;20150;-78
2023/12/30 09:41:00;;;;;;;1.00;1.00;;;;;;;1.06;100.00;97822.28;4797902;29;20051;-77
2023/12/30 09:43:30;;;;;;;1.10;1.10;;;;;;;1.10;100.00;97822.69;4783189;29;20055;-77
2023/12/30 09:45:58;;;;;;;1.00;1.00;;;;;;;1.10;100.00;97823.50;4797075;29;20075;-78
2023/12/30 09:48:30;;;;;;;1.00;1.00;;;;;;;1.14;100.00;97827.38;4783608;29;20422;-77
2023/12/30 09:50:57;;;;;;;1.10;1.10;;;;;;;1.17;100.00;97826.13;4782602;30;20108;-77
2023/12/30 09:53:25;;;;;;;1.00;1.00;;;;;;;1.17;100.00;97829.59;4783872;29;20516;-79
2023/12/30 09:55:58;;;;;;;1.10;1.10;;;;;;;1.20;100.00;97828.34;4783536;29;20091;-79
2023/12/30 09:58:25;;;;;;;0.98;0.98;;;;;;;1.15;100.00;97826.31;4784417;29;20062;-78
2023/12/30 10:00:53;;;;;;;1.10;1.10;;;;;;;1.18;100.00;97823.25;4784691;29;20150;-80
2023/12/30 10:03:21;;;;;;;0.98;0.98;;;;;;;1.15;100.00;97823.66;4784906;29;20465;-77
2023/12/30 10:05:50;;;;;;;1.10;1.10;;;;;;;1.17;100.00;97828.78;4784890;30;20059;-78
2023/12/30 10:08:17;;;;;;;1.00;1.00;;;;;;;1.22;100.00;97835.09;4797327;29;20055;-78
2023/12/30 10:10:46;;;;;;;1.00;1.00;;;;;;;1.23;100.00;97814.63;4797231;29;20135;-79
2023/12/30 10:13:26;;;;;;;0.90;0.90;;;;;;;1.25;100.00;97818.69;4768889;30;20059;-77
2023/12/30 10:15:58;;;;;;;1.00;1.00;;;;;;;1.29;100.00;97822.56;4797135;29;20277;-78
2023/12/30 10:18:25;;;;;;;1.10;1.10;;;;;;;1.32;100.00;97834.63;4799936;29;20055;-77
2023/12/30 10:20:53;;;;;;;1.00;1.00;;;;;;;1.28;100.00;97836.06;4785423;30;20469;-77
2023/12/30 10:23:21;;;;;;;1.10;1.10;;;;;;;1.25;100.00;97829.34;4786654;29;20055;-76
2023/12/30 10:25:49;;;;;;;1.10;1.10;;;;;;;1.26;100.00;97836.28;4786438;30;20520;-77
2023/12/30 10:28:16;;;;;;;1.00;1.00;;;;;;;1.24;100.00;97837.50;4800549;29;20059;-78
2023/12/30 10:30:44;;;;;;;1.10;1.10;;;;;;;1.29;100.00;97835.88;4787492;29;20059;-77
2023/12/30 10:33:15;;;;;;;1.00;1.00;;;;;;;1.32;100.00;97847.06;4786928;29;20469;-77
2023/12/30 10:35:43;;;;;;;1.00;1.00;;;;;;;1.30;100.00;97845.47;4787086;29;20077;-78
2023/12/30 10:38:13;;;;;;;0.98;0.98;;;;;;;1.36;100.00;97838.47;4799016;29;20200;-79
2023/12/30 10:40:43;;;;;;;0.93;0.93;;;;;;;1.37;100.00;97839.28;4804286;29;20107;-77
2023/12/30 10:43:12;;;;;;;1.10;1.10;;;;;;;1.36;100.00;97832.34;4804290;29;20396;-78
2023/12/30 10:45:40;;;;;;;1.00;1.00;;;;;;;1.41;100.00;97827.19;4790508;29;20059;-76
2023/12/30 10:48:08;;;;;;;1.10;1.10;;;;;;;1.36;100.00;97821.72;4786615;29;20105;-77
2023/12/30 10:50:37;;;;;;;1.00;1.00;;;;;;;1.39;100.00;97834.56;4786390;29;20062;-78
2023/12/30 10:53:12;;;;;;;1.00;1.00;;;;;;;1.40;100.00;97834.38;4786334;29;20055;-77
2023/12/30 10:55:48;;;;;;;0.95;0.95;;;;;;;1.42;100.00;97832.31;4784658;29;20059;-78
2023/12/30 10:58:22;;;;;;;1.00;1.00;;;;;;;1.44;100.00;97838.25;4784771;30;20081;-77
2023/12/30 11:00:57;;;;;;;1.00;1.00;;;;;;;1.45;100.00;97833.72;4786099;29;20063;-77
2023/12/30 11:03:25;;;;;;;1.10;1.10;;;;;;;1.46;100.00;97835.34;4786044;29;20058;-77
2023/12/30 11:06:08;;;;;;;1.00;1.00;;;;;;;1.49;100.00;97832.25;4786104;29;20146;-77
2023/12/30 11:08:36;;;;;;;1.10;1.10;;;;;;;1.51;100.00;97835.50;4799290;29;20055;-76
2023/12/30 11:11:04;;;;;;;1.00;1.00;;;;;;;1.51;100.00;97827.53;4786395;29;20059;-77
2023/12/30 11:13:36;;;;;;;1.00;1.00;;;;;;;1.56;100.00;97838.34;4785962;29;20479;-78
2023/12/30 11:16:14;;;;;;;1.00;1.00;;;;;;;1.57;100.00;97834.69;4784809;30;20427;-78
2023/12/30 11:18:49;;;;;;;1.00;1.00;;;;;;;1.58;100.00;97835.47;4786325;29;20086;-78
2023/12/30 11:21:39;;;;;;;1.10;1.10;;;;;;;1.55;100.00;97833.25;4799308;29;20066;-79
2023/12/30 11:24:08;;;;;;;0.95;0.95;;;;;;;1.53;100.00;97846.75;4781429;30;20388;-78
2023/12/30 11:26:37;;;;;;;1.00;1.00;;;;;;;1.55;100.00;97850.03;4774139;30;20066;-78
2023/12/30 11:29:14;;;;;;;1.10;1.10;;;;;;;1.52;100.00;97837.16;4783850;29;20101;-78
2023/12/30 11:31:42;;;;;;;;;;;;;;;1.56;100.00;97838.34;4768170;30;20052;-78
2023/12/30 11:34:13;;;;;;;1.10;1.10;;;;;;;1.50;100.00;97836.56;4779705;30;20304;-78
2023/12/30 11:36:41;;;;;;;1.00;1.00;;;;;;;1.55;100.00;97836.72;4785755;29;20051;-78